Time;durP1;ratioP1;P1;durP2;ratioP2;P2;SDS_P1;SDS_P2;PMS_P1;PMS_P2;Temp;Humidity;BMP_temperature;BMP_pressure;BME280_temperature;BME280_humidity;BME280_pressure;Samples;Min_cycle;Max_cycle;Signal;HPM_P1;HPM_P2
2021/03/03 00:00:25;;;;;;;23.52;9.93;;;;;;;1.46;50.29;102963.13;4991554;28;20696;-67
2021/03/03 00:02:50;;;;;;;19.08;9.43;;;;;;;1.42;50.27;102962.19;4991187;28;20025;-68
2021/03/03 00:05:16;;;;;;;20.95;9.63;;;;;;;1.43;50.72;102955.31;5008723;28;20430;-67
2021/03/03 00:07:41;;;;;;;21.67;9.05;;;;;;;1.32;51.03;102954.94;5006610;28;20156;-67
2021/03/03 00:10:08;;;;;;;23.50;9.25;;;;;;;1.27;50.91;102961.66;4991193;28;20030;-67
2021/03/03 00:12:33;;;;;;;18.00;9.00;;;;;;;1.22;51.20;102955.50;4990483;28;20176;-68
2021/03/03 00:14:59;;;;;;;18.13;7.93;;;;;;;1.25;51.07;102950.44;5008095;28;20056;-67
2021/03/03 00:17:24;;;;;;;18.58;8.43;;;;;;;1.26;50.92;102947.00;5008346;28;20533;-67
2021/03/03 00:19:50;;;;;;;17.80;7.93;;;;;;;1.30;50.91;102948.88;5008145;28;20038;-68
2021/03/03 00:22:15;;;;;;;15.35;8.00;;;;;;;1.24;50.91;102956.41;4986898;28;20080;-67
2021/03/03 00:24:41;;;;;;;15.07;6.53;;;;;;;1.27;50.96;102949.66;5007421;28;20038;-68
2021/03/03 00:27:06;;;;;;;16.35;6.97;;;;;;;1.30;50.86;102948.88;5008071;28;20438;-68
2021/03/03 00:29:32;;;;;;;18.23;7.28;;;;;;;1.35;50.99;102956.75;4991449;28;20018;-69
2021/03/03 00:31:57;;;;;;;20.42;8.15;;;;;;;1.35;50.84;102955.06;5006946;28;20037;-67
2021/03/03 00:34:23;;;;;;;15.77;8.02;;;;;;;1.37;50.93;102950.81;5007047;28;20042;-68
2021/03/03 00:36:48;;;;;;;20.65;9.15;;;;;;;1.35;52.11;102949.91;5007345;28;20037;-68
2021/03/03 00:39:14;;;;;;;31.00;11.15;;;;;;;1.29;53.36;102948.00;5006753;28;20081;-68
2021/03/03 00:41:39;;;;;;;18.33;10.55;;;;;;;1.42;53.26;102944.16;5007220;28;20550;-68
2021/03/03 00:44:05;;;;;;;24.58;10.45;;;;;;;1.43;53.07;102942.44;4990986;28;20029;-68
2021/03/03 00:46:30;;;;;;;23.65;10.52;;;;;;;1.45;52.81;102951.97;5003946;28;20052;-67
2021/03/03 00:48:56;;;;;;;23.95;10.13;;;;;;;1.50;52.64;102940.09;4991510;28;20025;-69
2021/03/03 00:51:22;;;;;;;21.15;10.23;;;;;;;1.55;52.53;102940.25;5007414;28;20053;-68
2021/03/03 00:53:48;;;;;;;20.95;9.18;;;;;;;1.59;52.50;102936.06;4989237;28;20038;-67
2021/03/03 00:56:15;;;;;;;19.20;9.88;;;;;;;1.61;52.53;102929.25;4989046;28;20507;-68
2021/03/03 00:58:41;;;;;;;22.58;10.57;;;;;;;1.58;52.76;102931.75;5007375;28;20030;-67
2021/03/03 01:01:06;;;;;;;23.92;10.98;;;;;;;1.53;54.15;102929.03;5008195;28;20060;-69
2021/03/03 01:03:34;;;;;;;27.42;12.60;;;;;;;1.71;54.30;102932.16;4974612;28;20120;-66
2021/03/03 01:06:18;;;;;;;27.13;12.05;;;;;;;1.86;54.47;102931.75;4989275;28;20178;-69
2021/03/03 01:08:43;;;;;;;26.77;11.45;;;;;;;1.86;54.39;102931.75;4988738;28;20034;-67
2021/03/03 01:11:09;;;;;;;27.02;12.40;;;;;;;2.02;54.29;102919.25;4988759;28;20100;-67
2021/03/03 01:13:38;;;;;;;36.85;11.85;;;;;;;2.03;54.20;102918.44;4987284;28;20025;-68
2021/03/03 01:16:08;;;;;;;25.63;11.52;;;;;;;2.16;54.12;102917.97;4972982;28;20479;-66
2021/03/03 01:18:34;;;;;;;26.77;11.18;;;;;;;2.12;53.84;102913.53;4988548;28;20124;-67
2021/03/03 01:20:59;;;;;;;29.42;11.50;;;;;;;2.05;54.32;102904.75;4987978;28;20083;-68
2021/03/03 01:23:25;;;;;;;28.08;10.52;;;;;;;2.05;54.58;102912.50;5006010;28;20487;-68
2021/03/03 01:25:50;;;;;;;30.98;12.63;;;;;;;2.14;54.53;102904.16;4989025;28;20646;-68
2021/03/03 01:28:16;;;;;;;28.85;12.75;;;;;;;2.16;54.44;102899.91;4977559;28;20034;-68
2021/03/03 01:30:41;;;;;;;25.35;12.30;;;;;;;2.24;54.13;102898.41;5006372;28;20442;-67
2021/03/03 01:33:07;;;;;;;31.27;11.65;;;;;;;2.26;53.98;102901.88;5006369;28;20069;-68
2021/03/03 01:35:32;;;;;;;29.35;11.25;;;;;;;2.23;54.00;102894.06;5004525;28;20034;-69
2021/03/03 01:37:58;;;;;;;27.45;11.60;;;;;;;2.22;54.11;102889.75;5006025;28;20091;-67
2021/03/03 01:40:23;;;;;;;29.58;11.25;;;;;;;2.20;53.75;102886.25;5006273;28;20038;-69
2021/03/03 01:42:49;;;;;;;37.83;12.23;;;;;;;2.14;54.11;102886.09;5006517;28;20033;-68
2021/03/03 01:45:15;;;;;;;28.60;11.70;;;;;;;2.06;53.54;102883.28;5006239;28;20551;-67
2021/03/03 01:47:41;;;;;;;23.75;10.20;;;;;;;1.92;53.48;102885.47;5006855;28;20430;-68
2021/03/03 01:50:08;;;;;;;29.73;11.57;;;;;;;1.89;54.27;102876.78;5005634;28;20040;-68
2021/03/03 01:52:37;;;;;;;26.70;11.27;;;;;;;1.91;53.75;102872.56;4989427;28;20096;-66
2021/03/03 01:55:03;;;;;;;28.88;12.20;;;;;;;1.83;54.12;102872.31;4987328;28;20468;-67
2021/03/03 01:57:29;;;;;;;33.75;12.02;;;;;;;1.84;53.63;102876.66;4988613;28;20086;-67
2021/03/03 01:59:54;;;;;;;26.63;10.07;;;;;;;1.84;53.24;102866.34;5004105;28;20044;-67
2021/03/03 02:02:23;;;;;;;24.05;9.48;;;;;;;1.86;52.67;102872.44;5007787;28;20038;-65
2021/03/03 02:04:53;;;;;;;22.27;9.85;;;;;;;1.88;52.40;102868.16;5008921;28;20427;-68
2021/03/03 02:07:29;;;;;;;18.38;9.52;;;;;;;1.79;52.33;102865.31;4992265;28;20056;-67
2021/03/03 02:10:07;;;;;;;22.33;8.82;;;;;;;1.69;52.28;102860.75;4990918;28;20029;-68
2021/03/03 02:12:33;;;;;;;24.52;8.82;;;;;;;1.53;52.19;102859.44;5008592;28;20038;-66
2021/03/03 02:15:02;;;;;;;19.42;9.07;;;;;;;1.31;52.49;102857.88;5007858;28;20042;-67
2021/03/03 02:17:30;;;;;;;25.77;10.90;;;;;;;1.17;53.00;102847.16;4991947;28;20041;-67
2021/03/03 02:20:01;;;;;;;21.58;9.43;;;;;;;1.07;53.45;102848.56;4990638;28;20026;-67
2021/03/03 02:22:49;;;;;;;20.63;9.90;;;;;;;1.17;53.43;102843.69;5008086;28;20030;-69
2021/03/03 02:25:24;;;;;;;21.42;9.38;;;;;;;1.15;53.07;102845.34;4976135;28;20042;-67
2021/03/03 02:27:50;;;;;;;23.67;9.75;;;;;;;1.09;53.20;102844.34;5009488;28;20072;-67
2021/03/03 02:30:16;;;;;;;29.25;11.07;;;;;;;1.10;53.63;102838.38;4994198;28;20033;-67
2021/03/03 02:32:43;;;;;;;30.50;11.05;;;;;;;1.24;54.17;102845.66;4991825;28;20041;-68
2021/03/03 02:35:10;;;;;;;28.73;10.27;;;;;;;1.21;53.14;102838.66;5008856;28;20034;-68
2021/03/03 02:37:37;;;;;;;24.95;11.00;;;;;;;1.13;53.37;102834.13;4989605;28;20095;-67
2021/03/03 02:40:08;;;;;;;28.50;9.98;;;;;;;1.17;52.98;102830.81;4990793;28;20026;-68
2021/03/03 02:42:36;;;;;;;27.48;10.82;;;;;;;1.00;54.14;102828.59;4994926;28;20037;-67
2021/03/03 02:45:06;;;;;;;30.80;10.55;;;;;;;1.10;53.28;102822.91;4990785;28;20065;-67
2021/03/03 02:47:33;;;;;;;20.02;9.02;;;;;;;0.95;53.37;102819.88;4991703;28;20038;-68
2021/03/03 02:49:59;;;;;;;22.58;10.27;;;;;;;0.90;53.43;102813.66;4988987;28;20087;-68
2021/03/03 02:52:27;;;;;;;28.13;10.57;;;;;;;1.03;53.13;102814.94;5008180;28;20431;-67
2021/03/03 02:54:53;;;;;;;23.30;10.68;;;;;;;0.91;53.47;102810.28;5008282;28;20518;-67
2021/03/03 02:57:20;;;;;;;23.58;10.90;;;;;;;0.89;53.42;102801.66;4978014;28;20040;-69
2021/03/03 02:59:52;;;;;;;25.35;10.20;;;;;;;0.97;53.16;102800.19;4989980;28;20034;-66
2021/03/03 03:02:20;;;;;;;28.25;10.45;;;;;;;0.97;53.24;102810.50;5008277;28;20354;-68
2021/03/03 03:04:48;;;;;;;20.20;9.15;;;;;;;1.02;53.02;102800.31;5007446;28;20052;-67
2021/03/03 03:07:23;;;;;;;27.17;9.73;;;;;;;0.89;52.69;102791.34;5007491;28;20157;-68
2021/03/03 03:09:50;;;;;;;20.38;9.13;;;;;;;0.86;52.64;102796.41;4988942;28;20464;-69
2021/03/03 03:12:17;;;;;;;21.85;10.23;;;;;;;0.74;53.03;102798.56;4987985;28;20035;-67
2021/03/03 03:14:47;;;;;;;24.77;9.98;;;;;;;0.75;53.03;102792.59;5004572;28;20034;-67
2021/03/03 03:17:14;;;;;;;22.95;8.88;;;;;;;0.63;53.00;102793.94;5007373;28;20069;-68
2021/03/03 03:19:42;;;;;;;20.90;8.48;;;;;;;0.55;53.46;102797.13;5009472;28;20615;-68
2021/03/03 03:22:09;;;;;;;22.73;9.02;;;;;;;0.54;53.36;102793.66;5004749;28;20064;-67
2021/03/03 03:24:36;;;;;;;18.63;8.10;;;;;;;0.58;53.04;102787.78;4989841;28;20040;-67
2021/03/03 03:27:04;;;;;;;23.33;8.45;;;;;;;0.52;53.12;102787.59;5005579;28;20057;-67
2021/03/03 03:29:29;;;;;;;26.85;9.60;;;;;;;0.64;52.82;102788.00;5010160;28;20056;-67
2021/03/03 03:31:56;;;;;;;25.90;9.32;;;;;;;0.47;53.17;102781.44;5007321;28;20057;-68
2021/03/03 03:34:21;;;;;;;19.92;9.05;;;;;;;0.45;53.38;102790.78;5008833;28;20034;-67
2021/03/03 03:36:48;;;;;;;20.33;8.73;;;;;;;0.41;53.69;102781.22;5005885;28;20041;-67
2021/03/03 03:39:14;;;;;;;22.80;8.77;;;;;;;0.42;53.32;102782.97;5008027;28;20112;-67
2021/03/03 03:41:41;;;;;;;19.27;8.90;;;;;;;0.39;53.37;102783.75;5005231;28;20034;-68
2021/03/03 03:44:10;;;;;;;19.63;7.97;;;;;;;0.36;53.23;102785.34;5008888;28;20034;-67
2021/03/03 03:46:37;;;;;;;19.05;7.43;;;;;;;0.36;53.44;102787.91;4986317;28;20117;-67
2021/03/03 03:49:04;;;;;;;20.95;8.15;;;;;;;0.39;53.29;102791.47;5007099;28;20077;-68
2021/03/03 03:51:30;;;;;;;19.55;7.57;;;;;;;0.30;53.49;102792.84;5006684;28;20096;-67
2021/03/03 03:53:55;;;;;;;17.92;7.07;;;;;;;0.27;53.53;102789.34;4989945;28;20041;-68
2021/03/03 03:56:21;;;;;;;10.68;5.13;;;;;;;0.27;53.34;102784.19;4991201;28;20085;-69
2021/03/03 03:58:46;;;;;;;16.63;6.75;;;;;;;0.24;53.18;102794.41;5006984;28;20052;-68
2021/03/03 04:01:12;;;;;;;14.48;6.35;;;;;;;0.28;52.89;102790.25;5008149;28;20096;-69
2021/03/03 04:03:38;;;;;;;16.55;5.05;;;;;;;0.25;52.82;102791.00;5005593;28;20038;-68
2021/03/03 04:06:03;;;;;;;11.25;4.97;;;;;;;0.25;52.61;102782.41;4992028;28;20038;-68
2021/03/03 04:08:29;;;;;;;11.55;5.03;;;;;;;0.23;52.67;102778.91;5007347;28;20034;-67
2021/03/03 04:10:55;;;;;;;10.80;5.43;;;;;;;0.32;52.53;102786.06;4995552;28;20044;-69
2021/03/03 04:13:21;;;;;;;9.63;4.60;;;;;;;0.24;52.58;102788.38;4990703;28;20053;-67
2021/03/03 04:15:46;;;;;;;17.65;6.05;;;;;;;0.29;52.42;102791.97;5008975;28;20038;-67
2021/03/03 04:18:13;;;;;;;13.10;5.57;;;;;;;0.16;52.46;102780.41;4998934;28;20037;-68
2021/03/03 04:20:41;;;;;;;14.05;6.10;;;;;;;-0.01;52.36;102787.56;4989460;28;20061;-68
2021/03/03 04:23:08;;;;;;;11.20;5.20;;;;;;;-0.05;52.61;102795.97;4989364;28;20044;-68
2021/03/03 04:25:35;;;;;;;13.32;6.25;;;;;;;-0.06;52.66;102790.78;4990390;28;20033;-67
2021/03/03 04:28:01;;;;;;;12.45;4.95;;;;;;;-0.16;52.75;102787.88;4990237;28;20037;-68
2021/03/03 04:30:27;;;;;;;12.00;5.32;;;;;;;-0.20;52.54;102793.72;5007252;28;20081;-69
2021/03/03 04:32:53;;;;;;;10.43;4.93;;;;;;;-0.26;52.68;102798.66;5006609;28;20069;-67
2021/03/03 04:35:18;;;;;;;14.55;5.60;;;;;;;-0.39;53.19;102802.50;4987984;28;20033;-67
2021/03/03 04:37:43;;;;;;;12.77;5.43;;;;;;;-0.36;53.63;102792.31;5008202;28;20041;-68
2021/03/03 04:40:10;;;;;;;10.82;5.07;;;;;;;-0.37;53.69;102795.72;5006383;28;20038;-67
2021/03/03 04:42:36;;;;;;;14.27;5.63;;;;;;;-0.40;54.06;102790.44;4987536;28;20038;-69
2021/03/03 04:45:04;;;;;;;15.48;5.85;;;;;;;-0.31;54.24;102787.34;4989534;28;20084;-66
2021/03/03 04:47:30;;;;;;;13.98;6.80;;;;;;;-0.24;54.03;102789.28;5005574;28;20030;-66
2021/03/03 04:49:55;;;;;;;10.43;6.03;;;;;;;-0.20;53.82;102780.88;5005237;28;20033;-66
2021/03/03 04:52:21;;;;;;;13.95;4.70;;;;;;;-0.16;53.29;102776.72;4987929;28;20041;-66
2021/03/03 04:54:46;;;;;;;8.73;4.55;;;;;;;-0.13;52.91;102777.69;5005352;28;20156;-66
2021/03/03 04:57:12;;;;;;;10.95;4.60;;;;;;;-0.21;52.43;102776.56;4976658;28;20037;-69
2021/03/03 04:59:37;;;;;;;8.73;4.20;;;;;;;-0.23;52.92;102773.06;5004649;28;20030;-68
2021/03/03 05:02:03;;;;;;;12.48;5.43;;;;;;;-0.24;53.12;102773.88;5000278;28;20178;-67
2021/03/03 05:04:28;;;;;;;12.05;5.20;;;;;;;-0.19;53.32;102771.47;5004665;28;20029;-67
2021/03/03 05:06:54;;;;;;;11.43;4.70;;;;;;;-0.19;53.65;102768.88;5003505;28;20038;-66
2021/03/03 05:09:19;;;;;;;11.20;5.70;;;;;;;-0.11;53.70;102764.91;4970994;28;20041;-66
2021/03/03 05:11:45;;;;;;;10.98;6.15;;;;;;;-0.06;53.81;102762.50;5002409;28;20034;-66
2021/03/03 05:14:11;;;;;;;10.10;5.18;;;;;;;-0.15;53.31;102769.09;5003303;28;20038;-66
2021/03/03 05:16:36;;;;;;;10.85;5.25;;;;;;;-0.10;53.12;102761.53;5004957;28;20491;-66
2021/03/03 05:19:02;;;;;;;8.00;4.80;;;;;;;-0.13;52.78;102761.41;4987113;28;20034;-66
2021/03/03 05:21:27;;;;;;;23.77;8.95;;;;;;;-0.11;52.73;102766.59;5005007;28;20109;-67
2021/03/03 05:23:53;;;;;;;20.98;9.48;;;;;;;-0.20;52.72;102762.88;5002595;28;20431;-66
2021/03/03 05:26:19;;;;;;;12.15;5.07;;;;;;;-0.32;53.09;102757.31;4987336;28;20463;-68
2021/03/03 05:28:45;;;;;;;15.02;6.20;;;;;;;-0.38;53.23;102755.41;5002145;28;20030;-68
2021/03/03 05:31:14;;;;;;;16.45;6.50;;;;;;;-0.39;53.53;102756.25;5003241;28;20420;-68
2021/03/03 05:33:41;;;;;;;18.83;6.95;;;;;;;-0.40;53.83;102751.03;4986875;28;20030;-66
2021/03/03 05:36:07;;;;;;;14.07;6.22;;;;;;;-0.44;53.77;102744.91;4991224;28;20030;-68
2021/03/03 05:38:34;;;;;;;10.73;5.57;;;;;;;-0.33;53.48;102744.41;4989248;28;20809;-68
2021/03/03 05:40:59;;;;;;;12.60;6.65;;;;;;;-0.40;53.64;102738.19;5007062;28;20033;-66
2021/03/03 05:43:25;;;;;;;13.82;6.68;;;;;;;-0.46;53.40;102732.81;5007553;28;20048;-67
2021/03/03 05:45:51;;;;;;;13.85;6.65;;;;;;;-0.43;53.54;102732.94;5007648;28;20452;-67
2021/03/03 05:48:19;;;;;;;16.05;5.97;;;;;;;-0.34;53.43;102730.69;5006915;28;20042;-67
2021/03/03 05:50:47;;;;;;;14.80;5.13;;;;;;;-0.16;52.92;102726.19;5007371;28;20025;-67
2021/03/03 05:53:14;;;;;;;11.32;5.47;;;;;;;-0.21;52.82;102722.59;4980795;28;20990;-69
2021/03/03 05:55:41;;;;;;;13.02;5.68;;;;;;;-0.16;53.10;102721.06;5006785;28;20065;-66
2021/03/03 05:58:10;;;;;;;9.73;5.13;;;;;;;-0.11;52.46;102712.63;5009195;28;20103;-67
2021/03/03 06:00:38;;;;;;;13.05;4.55;;;;;;;-0.17;52.60;102714.19;5005174;28;20041;-70
2021/03/03 06:03:04;;;;;;;11.10;5.30;;;;;;;-0.14;52.73;102714.28;4989182;28;20754;-68
2021/03/03 06:05:31;;;;;;;8.85;4.63;;;;;;;-0.04;52.74;102717.16;4989639;28;20125;-67
2021/03/03 06:07:57;;;;;;;10.05;4.97;;;;;;;-0.01;52.71;102712.13;4994938;28;20100;-68
2021/03/03 06:10:22;;;;;;;9.85;5.00;;;;;;;-0.15;52.43;102719.34;5009156;28;20077;-67
2021/03/03 06:12:49;;;;;;;11.20;5.63;;;;;;;-0.22;52.64;102707.97;5007506;28;20132;-68
2021/03/03 06:15:16;;;;;;;13.77;5.93;;;;;;;-0.18;52.73;102704.69;4989704;28;20035;-66
2021/03/03 06:17:43;;;;;;;11.95;5.57;;;;;;;-0.10;52.97;102704.09;5001466;28;20034;-67
2021/03/03 06:20:09;;;;;;;12.25;5.90;;;;;;;-0.06;52.84;102701.66;5004568;28;20045;-67
2021/03/03 06:22:35;;;;;;;10.88;5.07;;;;;;;0.18;52.82;102696.47;5008566;28;20080;-67
2021/03/03 06:25:00;;;;;;;12.45;6.93;;;;;;;0.23;52.38;102696.59;5006144;28;20105;-66
2021/03/03 06:27:37;;;;;;;13.93;5.75;;;;;;;0.28;52.46;102698.53;5005638;28;20042;-67
2021/03/03 06:30:08;;;;;;;14.20;7.05;;;;;;;0.41;52.37;102699.78;5006440;28;20057;-67
2021/03/03 06:32:53;;;;;;;15.20;6.53;;;;;;;0.58;51.82;102700.31;4991249;28;20244;-67
2021/03/03 06:35:20;;;;;;;15.38;6.22;;;;;;;0.55;51.86;102697.66;5007242;28;20081;-67
2021/03/03 06:37:53;;;;;;;15.43;6.55;;;;;;;0.62;51.79;102702.16;4993039;28;20125;-68
2021/03/03 06:40:19;;;;;;;16.92;7.22;;;;;;;0.83;51.33;102701.03;4989999;28;20034;-67
2021/03/03 06:42:45;;;;;;;15.80;7.18;;;;;;;0.95;51.11;102695.38;4991041;28;20045;-67
2021/03/03 06:45:24;;;;;;;13.48;6.30;;;;;;;0.89;51.17;102691.81;5005719;28;20056;-67
2021/03/03 06:47:50;;;;;;;15.93;7.57;;;;;;;1.02;51.12;102690.47;4990842;28;20042;-69
2021/03/03 06:50:16;;;;;;;15.48;7.68;;;;;;;1.30;51.13;102692.13;5007029;28;20187;-66
2021/03/03 06:52:42;;;;;;;25.77;9.30;;;;;;;1.49;50.21;102693.53;4987295;28;20045;-68
2021/03/03 06:55:43;;;;;;;30.60;8.30;;;;;;;1.69;49.90;102685.47;4994127;28;20037;-67
2021/03/03 06:58:30;;;;;;;14.05;5.53;;;;;;;1.89;49.58;102688.56;4979366;28;20092;-67
2021/03/03 07:01:13;;;;;;;797.88;129.10;;;;;;;2.11;49.66;102695.13;4987419;28;20041;-67
2021/03/03 07:04:00;;;;;;;1804.18;293.20;;;;;;;2.35;49.61;102687.06;5008032;28;20064;-65
2021/03/03 07:06:32;;;;;;;267.58;35.53;;;;;;;2.50;48.85;102691.72;5008485;28;20455;-67
2021/03/03 07:08:59;;;;;;;66.80;14.77;;;;;;;2.67;48.98;102695.56;4989243;28;20213;-67
2021/03/03 07:11:29;;;;;;;35.05;10.15;;;;;;;2.82;49.30;102694.13;5007710;28;20133;-67
2021/03/03 07:13:55;;;;;;;26.48;10.13;;;;;;;3.46;48.51;102687.72;4975533;28;20061;-68
2021/03/03 07:16:20;;;;;;;90.78;15.98;;;;;;;4.74;47.73;102687.19;5011961;28;20072;-67
2021/03/03 07:18:46;;;;;;;38.03;10.40;;;;;;;5.18;43.21;102684.31;5006815;28;20120;-67
2021/03/03 07:21:12;;;;;;;16.65;8.57;;;;;;;6.24;43.31;102672.34;4979960;28;20040;-66
2021/03/03 07:23:50;;;;;;;23.73;9.77;;;;;;;6.83;39.94;102678.75;5008871;28;20089;-68
2021/03/03 07:26:17;;;;;;;22.85;9.68;;;;;;;7.52;39.74;102679.81;4990615;28;20110;-65
2021/03/03 07:28:43;;;;;;;656.30;101.72;;;;;;;8.27;39.51;102678.13;4984719;28;20044;-67
2021/03/03 07:31:11;;;;;;;52.25;11.75;;;;;;;8.51;38.33;102672.84;5008515;28;20034;-67
2021/03/03 07:33:37;;;;;;;37.88;10.43;;;;;;;9.53;34.65;102677.66;4987908;28;20064;-66
2021/03/03 07:36:05;;;;;;;20.63;10.30;;;;;;;9.95;36.26;102666.03;5006339;28;20037;-66
2021/03/03 07:38:36;;;;;;;21.30;10.00;;;;;;;9.52;37.19;102676.78;5005387;28;20029;-66
2021/03/03 07:41:12;;;;;;;21.27;9.48;;;;;;;9.29;37.81;102669.09;5003141;28;20897;-68
2021/03/03 07:43:39;;;;;;;21.02;10.73;;;;;;;9.92;35.76;102670.41;4987336;28;20684;-67
2021/03/03 07:46:09;;;;;;;30.65;10.35;;;;;;;10.41;34.04;102664.69;5004378;28;20040;-67
2021/03/03 07:48:36;;;;;;;648.08;93.95;;;;;;;10.43;33.74;102669.03;4986181;28;20033;-66
2021/03/03 07:51:05;;;;;;;40.60;12.23;;;;;;;10.47;34.03;102674.25;5002206;28;20443;-67
2021/03/03 07:53:38;;;;;;;32.90;11.10;;;;;;;11.35;32.55;102667.06;4987089;28;20604;-66
2021/03/03 07:56:07;;;;;;;21.10;10.88;;;;;;;10.75;34.00;102665.19;4994153;28;20034;-69
2021/03/03 07:58:33;;;;;;;18.48;9.30;;;;;;;10.27;34.12;102666.59;5006700;28;20110;-67
2021/03/03 08:00:59;;;;;;;18.58;9.20;;;;;;;11.02;34.67;102661.41;5003420;28;20129;-69
2021/03/03 08:03:45;;;;;;;18.25;9.73;;;;;;;11.64;32.88;102661.34;4986486;28;20097;-68
2021/03/03 08:06:20;;;;;;;19.98;9.57;;;;;;;12.27;31.30;102665.53;4983492;28;20040;-71
2021/03/03 08:09:04;;;;;;;21.10;8.98;;;;;;;11.41;32.04;102658.22;4988665;28;20057;-68
2021/03/03 08:11:30;;;;;;;18.05;9.95;;;;;;;10.69;33.76;102660.03;4990348;28;20597;-68
2021/03/03 08:13:56;;;;;;;20.75;10.15;;;;;;;11.56;32.79;102667.59;5005371;28;20041;-68
2021/03/03 08:16:22;;;;;;;20.10;9.50;;;;;;;11.59;33.64;102664.94;4989039;28;20053;-69
2021/03/03 08:18:55;;;;;;;24.30;11.32;;;;;;;12.33;31.75;102661.91;5006796;28;20033;-68
2021/03/03 08:21:20;;;;;;;20.33;10.30;;;;;;;12.21;31.50;102667.41;4976249;28;20034;-69
2021/03/03 08:23:50;;;;;;;22.52;9.40;;;;;;;11.13;32.56;102660.34;4988917;28;20041;-69
2021/03/03 08:26:16;;;;;;;20.13;10.02;;;;;;;11.57;32.34;102661.47;5007595;28;20048;-68
2021/03/03 08:28:46;;;;;;;28.17;11.35;;;;;;;11.37;33.58;102665.25;5006010;28;20054;-69
2021/03/03 08:31:14;;;;;;;22.95;10.45;;;;;;;12.62;32.09;102663.09;4990027;28;20037;-68
2021/03/03 08:33:47;;;;;;;158.70;22.50;;;;;;;12.94;30.55;102666.84;5001525;28;20503;-69
2021/03/03 08:36:26;;;;;;;316.83;39.88;;;;;;;11.44;33.25;102661.66;4997499;28;20037;-68
2021/03/03 08:38:55;;;;;;;22.35;10.38;;;;;;;11.97;32.57;102668.69;4990110;28;21513;-69
2021/03/03 08:41:26;;;;;;;19.05;10.35;;;;;;;11.10;34.00;102665.66;4990990;28;20037;-68
2021/03/03 08:44:03;;;;;;;17.30;9.00;;;;;;;11.43;34.11;102665.16;4988200;28;20095;-69
2021/03/03 08:46:28;;;;;;;17.65;9.40;;;;;;;10.69;36.94;102660.03;4991876;28;20042;-68
2021/03/03 08:48:54;;;;;;;20.42;9.73;;;;;;;9.59;37.35;102667.16;5008005;28;20123;-69
2021/03/03 08:51:30;;;;;;;22.52;11.27;;;;;;;11.22;35.88;102660.25;5006159;28;20045;-70
2021/03/03 08:54:01;;;;;;;21.30;9.70;;;;;;;11.19;36.45;102662.91;5006506;28;20037;-67
2021/03/03 08:56:42;;;;;;;18.48;9.63;;;;;;;11.77;34.52;102664.66;4990993;28;20053;-68
2021/03/03 08:59:26;;;;;;;25.30;10.95;;;;;;;10.90;35.45;102665.91;5000835;28;20069;-69
2021/03/03 09:02:08;;;;;;;23.65;11.43;;;;;;;11.62;34.30;102654.38;4988639;28;20041;-70
2021/03/03 09:04:40;;;;;;;;;;;;;;;10.60;36.42;102647.06;4992025;28;20125;-69
2021/03/03 09:07:26;;;;;;;22.47;10.57;;;;;;;9.70;37.46;102654.00;4978770;28;19948;-68
2021/03/03 09:09:58;;;;;;;31.88;12.35;;;;;;;9.56;38.17;102654.13;5010895;28;20041;-69
2021/03/03 09:12:25;;;;;;;24.20;11.60;;;;;;;9.65;38.53;102650.56;5012352;28;20129;-70
2021/03/03 09:14:53;;;;;;;24.80;11.98;;;;;;;9.20;38.83;102648.28;4998929;28;20038;-67
2021/03/03 09:17:25;;;;;;;28.02;11.60;;;;;;;9.65;38.17;102648.81;5008994;28;20480;-68
2021/03/03 09:19:50;;;;;;;25.02;11.98;;;;;;;10.36;37.88;102641.22;5010638;28;20037;-68
2021/03/03 09:22:21;;;;;;;26.65;12.43;;;;;;;10.65;36.57;102632.19;4978082;28;20038;-68
2021/03/03 09:24:48;;;;;;;20.43;11.07;;;;;;;11.12;35.84;102632.47;5012655;28;20057;-68
2021/03/03 09:27:14;;;;;;;21.40;10.80;;;;;;;10.78;36.85;102643.38;4993801;28;20293;-68
2021/03/03 09:29:40;;;;;;;25.30;13.40;;;;;;;11.13;36.26;102635.06;4998654;28;20026;-70
2021/03/03 09:32:10;;;;;;;21.52;11.98;;;;;;;11.59;35.14;102639.59;4990444;28;20475;-71
2021/03/03 09:34:51;;;;;;;22.50;12.55;;;;;;;11.81;35.21;102628.81;5008596;28;20030;-69
2021/03/03 09:37:18;;;;;;;19.92;10.30;;;;;;;11.85;34.58;102631.34;4988789;28;20033;-69
2021/03/03 09:40:12;;;;;;;26.20;10.95;;;;;;;10.88;36.38;102631.91;5008358;28;20133;-69
2021/03/03 09:42:40;;;;;;;36.63;14.27;;;;;;;10.54;37.10;102627.09;4992869;28;20131;-69
2021/03/03 09:45:08;;;;;;;21.70;11.85;;;;;;;11.45;35.33;102623.25;4991293;28;20052;-69
2021/03/03 09:47:38;;;;;;;28.60;11.32;;;;;;;11.50;34.90;102623.19;5005330;28;20369;-69
2021/03/03 09:50:12;;;;;;;27.27;12.80;;;;;;;10.63;36.97;102619.13;5002161;28;20046;-69
2021/03/03 09:52:41;;;;;;;26.13;13.48;;;;;;;10.99;36.55;102616.06;4991757;28;20068;-69
2021/03/03 09:55:15;;;;;;;27.13;12.57;;;;;;;10.72;37.08;102619.91;4993524;28;20037;-67
2021/03/03 09:57:42;;;;;;;32.35;12.95;;;;;;;10.04;38.68;102618.06;4991645;28;20030;-67
2021/03/03 10:00:16;;;;;;;25.92;12.85;;;;;;;10.87;37.77;102626.72;4974855;28;20695;-68
2021/03/03 10:02:51;;;;;;;28.95;13.77;;;;;;;11.27;37.57;102621.78;4987456;28;20037;-66
2021/03/03 10:05:24;;;;;;;23.27;13.10;;;;;;;11.46;35.44;102625.84;4989150;28;20045;-67
2021/03/03 10:07:52;;;;;;;19.85;12.02;;;;;;;12.01;35.35;102628.44;4989744;28;20060;-67
2021/03/03 10:10:21;;;;;;;27.98;13.25;;;;;;;11.38;35.86;102624.25;4991033;28;20033;-67
2021/03/03 10:12:47;;;;;;;25.42;13.30;;;;;;;11.32;36.58;102619.09;4987928;28;20593;-67
2021/03/03 10:15:20;;;;;;;28.70;13.68;;;;;;;10.87;36.73;102622.34;4984269;28;20476;-67
2021/03/03 10:17:54;;;;;;;29.35;14.65;;;;;;;10.58;38.13;102614.84;5008564;28;20037;-67
2021/03/03 10:20:28;;;;;;;25.20;12.35;;;;;;;10.95;36.99;102614.38;5009768;28;20038;-68
2021/03/03 10:23:03;;;;;;;24.30;13.75;;;;;;;11.07;37.01;102606.38;5008683;28;20526;-66
2021/03/03 10:25:39;;;;;;;29.15;14.63;;;;;;;10.73;37.72;102614.66;5013928;28;20034;-67
2021/03/03 10:28:13;;;;;;;25.33;14.30;;;;;;;10.28;38.35;102616.06;5009481;28;20046;-67
2021/03/03 10:30:41;;;;;;;23.95;13.60;;;;;;;10.06;39.61;102611.06;4989754;28;20060;-67
2021/03/03 10:33:09;;;;;;;20.88;12.27;;;;;;;10.63;39.03;102613.88;5009073;28;20076;-67
2021/03/03 10:35:46;;;;;;;22.30;12.82;;;;;;;10.63;38.81;102618.25;5007473;28;20037;-67
2021/03/03 10:38:14;;;;;;;34.15;15.10;;;;;;;10.39;39.36;102609.84;4991314;28;20084;-66
2021/03/03 10:40:42;;;;;;;24.38;13.98;;;;;;;10.81;38.74;102615.44;5009757;28;20545;-66
2021/03/03 10:43:13;;;;;;;30.15;14.25;;;;;;;10.36;38.85;102609.00;5006782;28;20117;-66
2021/03/03 10:45:39;;;;;;;31.40;15.48;;;;;;;10.98;37.61;102604.75;4995330;28;20101;-66
2021/03/03 10:48:05;;;;;;;32.50;14.45;;;;;;;10.81;38.32;102602.34;5007866;28;20053;-66
2021/03/03 10:50:32;;;;;;;26.80;16.13;;;;;;;10.42;38.81;102598.47;4990519;28;20399;-65
2021/03/03 10:53:00;;;;;;;29.50;16.45;;;;;;;11.33;37.68;102608.63;4989179;28;20030;-67
2021/03/03 10:55:35;;;;;;;29.30;15.68;;;;;;;10.19;38.68;102596.13;5007006;28;20102;-67
2021/03/03 10:58:07;;;;;;;32.45;17.08;;;;;;;10.48;38.85;102602.75;4990334;28;20036;-68
2021/03/03 11:00:52;;;;;;;26.60;14.45;;;;;;;11.37;37.46;102606.78;5009670;28;20041;-67
2021/03/03 11:03:17;;;;;;;31.52;16.13;;;;;;;11.52;36.49;102608.31;4987768;28;20044;-67
2021/03/03 11:05:42;;;;;;;29.73;16.55;;;;;;;10.88;38.17;102603.13;5008559;28;20030;-68
2021/03/03 11:08:08;;;;;;;28.83;15.93;;;;;;;10.94;37.92;102603.06;4991107;28;20127;-67
2021/03/03 11:10:33;;;;;;;33.25;17.05;;;;;;;10.83;38.40;102597.97;4997932;28;20030;-68
2021/03/03 11:13:02;;;;;;;37.80;16.90;;;;;;;10.88;37.13;102604.91;4993611;28;20034;-67
2021/03/03 11:15:27;;;;;;;37.00;18.30;;;;;;;11.01;39.20;102594.22;5014962;28;20038;-68
2021/03/03 11:17:53;;;;;;;40.08;17.45;;;;;;;12.17;36.29;102589.72;4997146;28;20033;-68
2021/03/03 11:20:18;;;;;;;32.72;17.70;;;;;;;11.98;36.35;102594.44;4979706;28;20052;-68
2021/03/03 11:22:44;;;;;;;33.58;16.85;;;;;;;12.53;35.36;102584.63;5010558;28;20464;-68